Time;durP1;ratioP1;P1;durP2;ratioP2;P2;SDS_P1;SDS_P2;PMS_P1;PMS_P2;Temp;Humidity;BMP_temperature;BMP_pressure;BME280_temperature;BME280_humidity;BME280_pressure;Samples;Min_cycle;Max_cycle;Signal;HPM_P1;HPM_P2
2022/11/13 00:00:31;;;;;;;24.10;14.70;;;5.70;99.90;;;;;;5003568;28;21733;-81
2022/11/13 00:02:56;;;;;;;31.45;14.98;;;5.70;99.90;;;;;;5000080;28;20111;-79
2022/11/13 00:05:22;;;;;;;25.50;15.75;;;5.70;99.90;;;;;;4988755;28;20041;-79
2022/11/13 00:07:47;;;;;;;24.33;15.68;;;5.70;99.90;;;;;;4982339;28;20033;-79
2022/11/13 00:10:13;;;;;;;24.35;16.25;;;5.70;99.90;;;;;;5002275;28;20041;-79
2022/11/13 00:12:39;;;;;;;24.80;17.10;;;5.70;99.90;;;;;;5006800;28;20033;-79
2022/11/13 00:15:05;;;;;;;26.38;16.73;;;5.70;99.90;;;;;;5006349;28;20038;-78
2022/11/13 00:17:30;;;;;;;38.50;17.92;;;5.70;99.90;;;;;;5007804;28;20159;-79
2022/11/13 00:19:56;;;;;;;28.30;16.08;;;5.80;99.90;;;;;;5006487;28;20041;-78
2022/11/13 00:22:21;;;;;;;24.63;16.85;;;5.80;99.90;;;;;;5005891;28;20905;-77
2022/11/13 00:24:47;;;;;;;25.45;17.30;;;5.80;99.90;;;;;;5003528;28;20503;-82
2022/11/13 00:27:13;;;;;;;23.25;16.45;;;5.80;99.90;;;;;;5006944;28;20060;-77
2022/11/13 00:29:39;;;;;;;23.65;16.83;;;5.90;99.90;;;;;;5008523;28;20120;-76
2022/11/13 00:32:04;;;;;;;24.02;17.70;;;5.90;99.90;;;;;;5006667;28;20033;-76
2022/11/13 00:34:30;;;;;;;27.98;19.08;;;5.90;99.90;;;;;;5010077;28;20055;-76
2022/11/13 00:36:56;;;;;;;27.60;18.90;;;6.00;99.90;;;;;;5007005;28;20061;-76
2022/11/13 00:39:21;;;;;;;32.17;21.02;;;6.10;99.90;;;;;;5005033;28;20068;-75
2022/11/13 00:41:47;;;;;;;25.13;18.67;;;6.20;99.90;;;;;;5007090;28;20053;-75
2022/11/13 00:44:12;;;;;;;21.13;14.13;;;6.30;99.90;;;;;;5003717;28;20035;-74
2022/11/13 00:46:38;;;;;;;20.45;13.35;;;6.30;99.90;;;;;;5006626;28;20164;-75
2022/11/13 00:49:04;;;;;;;21.95;14.60;;;6.30;99.90;;;;;;5007621;28;20025;-75
2022/11/13 00:51:30;;;;;;;26.27;16.40;;;6.30;99.90;;;;;;5000728;28;20075;-75
2022/11/13 00:53:55;;;;;;;29.10;17.17;;;6.20;99.90;;;;;;5004377;28;20140;-76
2022/11/13 00:56:21;;;;;;;25.55;17.02;;;6.10;99.90;;;;;;5002823;28;20044;-77
2022/11/13 00:58:46;;;;;;;27.65;17.27;;;6.00;99.90;;;;;;4998345;28;20051;-76
2022/11/13 01:01:15;;;;;;;26.08;15.35;;;6.00;99.90;;;;;;5010522;28;20120;-76
2022/11/13 01:03:40;;;;;;;22.98;14.93;;;6.00;99.90;;;;;;5004157;28;20539;-76
2022/11/13 01:06:17;;;;;;;23.02;15.77;;;6.00;99.90;;;;;;5006150;28;20046;-78
2022/11/13 01:08:43;;;;;;;25.63;16.23;;;6.10;99.90;;;;;;5007666;28;20099;-77
2022/11/13 01:11:12;;;;;;;24.17;16.50;;;6.10;99.90;;;;;;5010182;28;20050;-77
2022/11/13 01:13:42;;;;;;;23.27;15.38;;;6.10;99.90;;;;;;5004662;28;20056;-76
2022/11/13 01:16:09;;;;;;;22.10;14.95;;;6.10;99.90;;;;;;5003240;28;20049;-76
2022/11/13 01:18:36;;;;;;;22.23;15.15;;;6.10;99.90;;;;;;5010489;28;20132;-76
2022/11/13 01:21:10;;;;;;;22.85;14.70;;;6.10;99.90;;;;;;5006783;28;20108;-76
2022/11/13 01:23:37;;;;;;;21.75;14.82;;;6.00;99.90;;;;;;5009308;28;20658;-76
2022/11/13 01:26:09;;;;;;;20.67;14.68;;;6.00;99.90;;;;;;5006144;28;20044;-76
2022/11/13 01:28:35;;;;;;;;;;;6.00;99.90;;;;;;5006849;28;20754;-76
2022/11/13 01:31:07;;;;;;;23.33;15.57;;;6.00;99.90;;;;;;5009063;28;19913;-76
2022/11/13 01:33:33;;;;;;;23.55;15.38;;;6.00;99.90;;;;;;5005361;28;20145;-76
2022/11/13 01:36:00;;;;;;;20.08;14.20;;;6.00;99.90;;;;;;5006385;28;20128;-75
2022/11/13 01:38:26;;;;;;;17.17;13.73;;;6.10;99.90;;;;;;4974169;28;20046;-76
2022/11/13 01:40:51;;;;;;;22.27;15.85;;;6.00;99.90;;;;;;5008634;28;20494;-77
2022/11/13 01:43:27;;;;;;;20.85;14.05;;;5.90;99.90;;;;;;5005546;28;20130;-77
2022/11/13 01:45:59;;;;;;;20.98;14.13;;;5.90;99.90;;;;;;5007631;28;20052;-76
2022/11/13 01:48:40;;;;;;;23.40;15.80;;;5.90;99.90;;;;;;5001834;28;20030;-76
2022/11/13 01:51:11;;;;;;;106.55;21.98;;;5.80;99.90;;;;;;5006513;28;20044;-76
2022/11/13 01:53:39;;;;;;;38.22;19.48;;;5.70;99.90;;;;;;4999355;28;20139;-75
2022/11/13 01:56:06;;;;;;;28.25;17.95;;;5.60;99.90;;;;;;5007496;28;20034;-75
2022/11/13 01:58:32;;;;;;;30.27;16.80;;;5.60;99.90;;;;;;5007382;28;20342;-77
2022/11/13 02:00:58;;;;;;;42.38;19.77;;;5.60;99.90;;;;;;5006224;28;20561;-77
2022/11/13 02:03:23;;;;;;;29.90;18.30;;;5.60;99.90;;;;;;4989143;28;20574;-77
2022/11/13 02:05:50;;;;;;;28.33;16.40;;;5.60;99.90;;;;;;4999261;28;20046;-78
2022/11/13 02:08:15;;;;;;;38.05;20.15;;;5.70;99.90;;;;;;5006482;28;20110;-77
2022/11/13 02:10:42;;;;;;;40.38;22.48;;;5.70;99.90;;;;;;5009246;28;20753;-76
2022/11/13 02:13:09;;;;;;;35.05;22.65;;;5.80;99.90;;;;;;4996053;28;20164;-75
2022/11/13 02:15:35;;;;;;;37.40;22.05;;;5.80;99.90;;;;;;5010073;28;20042;-77
2022/11/13 02:18:02;;;;;;;32.00;17.50;;;5.90;99.90;;;;;;5016949;28;20033;-76
2022/11/13 02:20:38;;;;;;;34.90;18.08;;;5.90;99.90;;;;;;5013775;28;20042;-76
2022/11/13 02:23:15;;;;;;;48.78;17.73;;;5.80;99.90;;;;;;5015641;28;20057;-76
2022/11/13 02:25:43;;;;;;;78.72;18.42;;;5.80;99.90;;;;;;5009441;28;21567;-77
2022/11/13 02:28:08;;;;;;;40.92;17.13;;;5.80;99.90;;;;;;5011145;28;20053;-76
2022/11/13 02:30:35;;;;;;;71.28;17.50;;;5.70;99.90;;;;;;5012685;28;20449;-76
2022/11/13 02:33:01;;;;;;;32.55;18.60;;;5.70;99.90;;;;;;5009539;28;20052;-76
2022/11/13 02:35:33;;;;;;;66.28;19.92;;;5.70;99.90;;;;;;5016368;28;20049;-77
2022/11/13 02:38:03;;;;;;;47.92;19.63;;;5.70;99.90;;;;;;5002706;28;20037;-78
2022/11/13 02:40:29;;;;;;;46.67;19.63;;;5.60;99.90;;;;;;5009399;28;20052;-77
2022/11/13 02:42:54;;;;;;;72.22;20.35;;;5.60;99.90;;;;;;5011887;28;20042;-77
2022/11/13 02:45:20;;;;;;;125.60;21.98;;;5.70;99.90;;;;;;5011900;28;20045;-77
2022/11/13 02:47:46;;;;;;;60.50;20.67;;;5.70;99.90;;;;;;5013054;28;20072;-82
2022/11/13 02:50:13;;;;;;;49.10;21.30;;;5.80;99.90;;;;;;5007026;28;20042;-79
2022/11/13 02:52:38;;;;;;;52.42;18.70;;;5.70;99.90;;;;;;5001868;28;20046;-78
2022/11/13 02:55:05;;;;;;;48.78;18.50;;;5.80;99.90;;;;;;5011482;28;20069;-77
2022/11/13 02:57:31;;;;;;;41.17;19.85;;;5.80;99.90;;;;;;5010017;28;20030;-78
2022/11/13 02:59:56;;;;;;;81.85;19.13;;;5.80;99.90;;;;;;5001426;28;20435;-78
2022/11/13 03:02:22;;;;;;;80.75;18.38;;;5.90;99.90;;;;;;5003607;28;20129;-80
2022/11/13 03:04:47;;;;;;;44.80;17.13;;;6.00;99.90;;;;;;4986107;28;20917;-77
2022/11/13 03:07:13;;;;;;;53.75;16.45;;;6.00;99.90;;;;;;5014905;28;20120;-75
2022/11/13 03:09:39;;;;;;;81.65;16.67;;;6.00;99.90;;;;;;5010960;28;20053;-76
2022/11/13 03:12:07;;;;;;;57.58;16.02;;;6.00;99.90;;;;;;5012349;28;20042;-76
2022/11/13 03:14:32;;;;;;;39.10;15.55;;;6.00;99.90;;;;;;5011446;28;20103;-77
2022/11/13 03:16:58;;;;;;;48.33;16.25;;;5.90;99.90;;;;;;5010357;28;20037;-76
2022/11/13 03:19:24;;;;;;;82.00;17.00;;;5.90;99.90;;;;;;5005666;28;20570;-76
2022/11/13 03:21:49;;;;;;;37.97;16.42;;;5.90;99.90;;;;;;5013497;28;21147;-74
2022/11/13 03:24:15;;;;;;;46.92;15.70;;;5.90;99.90;;;;;;5007782;28;20037;-76
2022/11/13 03:26:40;;;;;;;46.15;16.48;;;5.90;99.90;;;;;;5009491;28;20037;-76
2022/11/13 03:29:06;;;;;;;61.10;15.18;;;5.90;99.90;;;;;;5010871;28;20126;-76
2022/11/13 03:31:32;;;;;;;43.10;14.70;;;5.90;99.90;;;;;;5012029;28;20159;-75
2022/11/13 03:33:58;;;;;;;50.35;15.45;;;6.00;99.90;;;;;;5000928;28;20045;-75
2022/11/13 03:36:23;;;;;;;86.93;17.08;;;6.00;99.90;;;;;;5012123;28;20566;-75
2022/11/13 03:38:49;;;;;;;97.82;16.27;;;6.10;99.90;;;;;;5017003;28;20033;-77
2022/11/13 03:41:15;;;;;;;69.55;15.80;;;6.10;99.90;;;;;;5016263;28;20119;-75
2022/11/13 03:43:41;;;;;;;112.30;16.55;;;6.00;99.90;;;;;;5010257;28;20034;-76
2022/11/13 03:46:07;;;;;;;41.83;14.18;;;6.00;99.90;;;;;;5009026;28;20052;-76
2022/11/13 03:48:33;;;;;;;56.35;14.57;;;6.00;99.90;;;;;;5008659;28;20218;-79
2022/11/13 03:51:00;;;;;;;65.82;14.73;;;6.00;99.90;;;;;;5009196;28;20038;-85
2022/11/13 03:53:26;;;;;;;76.40;15.48;;;6.10;99.90;;;;;;5012054;28;20549;-83
2022/11/13 03:55:51;;;;;;;73.90;15.77;;;6.20;99.90;;;;;;4989801;28;20088;-79
2022/11/13 03:58:17;;;;;;;77.90;15.68;;;6.20;99.90;;;;;;5012073;28;20065;-82
2022/11/13 04:00:44;;;;;;;65.35;15.25;;;6.20;99.90;;;;;;5011243;28;20038;-78
2022/11/13 04:03:10;;;;;;;45.28;14.23;;;6.30;99.90;;;;;;5012239;28;20102;-77
2022/11/13 04:05:36;;;;;;;42.15;13.75;;;6.40;99.90;;;;;;5004508;28;20033;-78
2022/11/13 04:08:01;;;;;;;97.78;17.13;;;6.40;99.90;;;;;;5007722;28;20030;-82
2022/11/13 04:10:27;;;;;;;86.00;15.82;;;6.40;99.90;;;;;;5010004;28;20033;-78
2022/11/13 04:12:52;;;;;;;82.32;15.43;;;6.40;99.90;;;;;;5012078;28;20075;-78
2022/11/13 04:15:18;;;;;;;52.03;15.30;;;6.40;99.90;;;;;;5006265;28;20675;-79
2022/11/13 04:17:44;;;;;;;70.90;22.02;;;6.50;99.90;;;;;;5007591;28;20046;-78
2022/11/13 04:20:10;;;;;;;64.38;16.83;;;6.60;99.90;;;;;;5012899;28;20045;-76
2022/11/13 04:22:36;;;;;;;73.05;16.77;;;6.60;99.90;;;;;;5012381;28;20029;-75
2022/11/13 04:25:02;;;;;;;53.90;16.75;;;6.60;99.90;;;;;;5009231;28;20558;-74
2022/11/13 04:27:27;;;;;;;68.20;18.77;;;6.70;99.90;;;;;;5007413;28;20053;-76
2022/11/13 04:29:53;;;;;;;50.58;13.85;;;6.70;99.90;;;;;;5002956;28;20033;-75
2022/11/13 04:32:18;;;;;;;70.43;12.80;;;6.70;99.90;;;;;;5003321;28;20045;-74
2022/11/13 04:34:44;;;;;;;26.08;12.45;;;6.60;99.90;;;;;;5007293;28;20044;-74
2022/11/13 04:37:09;;;;;;;44.42;13.15;;;6.50;99.90;;;;;;5008072;28;20053;-74
2022/11/13 04:39:35;;;;;;;40.22;13.20;;;6.60;99.90;;;;;;5004709;28;20044;-75
2022/11/13 04:44:45;;;;;;;39.30;14.35;;;6.70;99.90;;;;;;4999383;28;21931;-74
2022/11/13 04:47:11;;;;;;;68.22;13.80;;;6.80;99.90;;;;;;5008262;28;20025;-74
2022/11/13 04:49:36;;;;;;;54.38;14.20;;;6.80;99.90;;;;;;5005815;28;20037;-76
2022/11/13 04:52:02;;;;;;;63.22;13.02;;;6.90;99.90;;;;;;4999369;28;20139;-78
2022/11/13 04:54:27;;;;;;;46.65;12.40;;;6.80;99.90;;;;;;5003765;28;20038;-76
2022/11/13 04:56:53;;;;;;;40.65;11.70;;;6.90;99.90;;;;;;5007873;28;20068;-76
2022/11/13 04:59:19;;;;;;;33.10;11.57;;;6.90;99.90;;;;;;5004350;28;20069;-76
2022/11/13 05:01:44;;;;;;;50.25;13.00;;;7.00;99.90;;;;;;5005220;28;20050;-76
2022/11/13 05:04:12;;;;;;;61.85;14.05;;;7.00;99.90;;;;;;5008701;28;20136;-76
2022/11/13 05:06:38;;;;;;;56.35;13.00;;;7.00;99.90;;;;;;5003275;28;20092;-76
2022/11/13 05:09:03;;;;;;;33.90;12.98;;;6.90;99.90;;;;;;5009056;28;20048;-76
2022/11/13 05:11:29;;;;;;;32.13;12.63;;;6.90;99.90;;;;;;5003423;28;20045;-76
2022/11/13 05:13:54;;;;;;;51.45;12.82;;;6.90;99.90;;;;;;5009816;28;20033;-76
2022/11/13 05:16:20;;;;;;;37.35;12.32;;;6.90;99.90;;;;;;5004267;28;21407;-76
2022/11/13 05:18:46;;;;;;;25.85;12.38;;;6.90;99.90;;;;;;5008056;28;20105;-75
2022/11/13 05:21:11;;;;;;;25.92;12.52;;;6.80;99.90;;;;;;5002380;28;20122;-76
2022/11/13 05:23:37;;;;;;;31.63;12.68;;;6.80;99.90;;;;;;5008974;28;20433;-76
2022/11/13 05:26:11;;;;;;;17.33;11.90;;;6.80;99.90;;;;;;5005056;28;20418;-76
2022/11/13 05:28:38;;;;;;;21.63;11.93;;;6.80;99.90;;;;;;5004363;28;20103;-76
2022/11/13 05:31:14;;;;;;;43.53;10.82;;;6.80;99.90;;;;;;5004728;28;20042;-76
2022/11/13 05:33:41;;;;;;;41.95;10.88;;;6.70;99.90;;;;;;5004620;28;20522;-76
2022/11/13 05:36:12;;;;;;;18.60;11.18;;;6.70;99.90;;;;;;5003852;28;20098;-81
2022/11/13 05:38:39;;;;;;;28.63;11.35;;;6.60;99.90;;;;;;5006760;28;20096;-81
2022/11/13 05:41:07;;;;;;;29.35;11.55;;;6.70;99.90;;;;;;5002506;28;20295;-81
2022/11/13 05:43:33;;;;;;;37.58;11.45;;;6.70;99.90;;;;;;5000594;28;20127;-81
2022/11/13 05:46:10;;;;;;;23.92;10.40;;;6.70;99.90;;;;;;4984649;28;20055;-81
2022/11/13 05:48:35;;;;;;;30.92;11.57;;;6.70;99.90;;;;;;4983724;28;20041;-78
2022/11/13 05:51:15;;;;;;;26.85;10.55;;;6.60;99.90;;;;;;5004181;28;20037;-81
2022/11/13 05:53:41;;;;;;;34.67;11.07;;;6.60;99.90;;;;;;5005739;28;20830;-80
2022/11/13 05:56:20;;;;;;;27.58;11.73;;;6.50;99.90;;;;;;5004543;28;20049;-76
2022/11/13 05:58:47;;;;;;;30.67;11.63;;;6.50;99.90;;;;;;5006776;28;20036;-76
2022/11/13 06:01:26;;;;;;;32.70;12.60;;;6.50;99.90;;;;;;5000450;28;20073;-76
2022/11/13 06:03:55;;;;;;;26.33;13.10;;;6.50;99.90;;;;;;5000893;28;20079;-76
2022/11/13 06:06:22;;;;;;;21.30;12.43;;;6.50;99.90;;;;;;4997869;28;20065;-75
2022/11/13 06:08:49;;;;;;;22.95;12.43;;;6.50;99.90;;;;;;4999227;28;20514;-76
2022/11/13 06:11:17;;;;;;;17.42;10.77;;;6.50;99.90;;;;;;4997410;28;20048;-76
2022/11/13 06:13:43;;;;;;;33.97;11.57;;;6.50;99.90;;;;;;4996135;28;20036;-76
2022/11/13 06:16:15;;;;;;;22.10;10.48;;;6.50;99.90;;;;;;4999849;28;20037;-81
2022/11/13 06:18:42;;;;;;;13.55;9.60;;;6.50;99.90;;;;;;4997229;28;20115;-81
2022/11/13 06:21:11;;;;;;;23.52;11.75;;;6.50;99.90;;;;;;4995203;28;20045;-81
2022/11/13 06:23:38;;;;;;;22.38;10.95;;;6.40;99.90;;;;;;4996653;28;20639;-81
2022/11/13 06:26:06;;;;;;;15.55;11.00;;;6.40;99.90;;;;;;4998777;28;20051;-81
2022/11/13 06:28:32;;;;;;;23.38;10.70;;;6.40;99.90;;;;;;4996427;28;20531;-82
2022/11/13 06:31:09;;;;;;;27.35;10.30;;;6.50;99.90;;;;;;4996985;28;20134;-81
2022/11/13 06:33:36;;;;;;;28.27;10.85;;;6.50;99.90;;;;;;4997854;28;20037;-82
2022/11/13 06:36:06;;;;;;;69.85;11.02;;;6.50;99.90;;;;;;4995045;28;20034;-81
2022/11/13 06:38:34;;;;;;;89.35;12.00;;;6.50;99.90;;;;;;4993122;28;20414;-82
2022/11/13 06:40:59;;;;;;;27.35;11.82;;;6.50;99.90;;;;;;4981230;28;20061;-82
2022/11/13 06:43:25;;;;;;;40.47;14.15;;;6.60;99.90;;;;;;4996312;28;20042;-82
2022/11/13 06:45:52;;;;;;;40.63;15.93;;;6.60;99.90;;;;;;5002246;28;20124;-82
2022/11/13 06:48:17;;;;;;;40.60;12.55;;;6.70;99.90;;;;;;5007964;28;20529;-83
2022/11/13 06:50:43;;;;;;;19.02;13.13;;;6.70;99.90;;;;;;5008195;28;20115;-81
2022/11/13 06:53:08;;;;;;;26.42;12.52;;;6.70;99.90;;;;;;5007023;28;20087;-82
2022/11/13 06:55:34;;;;;;;54.00;13.80;;;6.80;99.90;;;;;;5004674;28;20063;-82
2022/11/13 06:57:59;;;;;;;57.95;12.43;;;6.80;99.90;;;;;;5002607;28;20043;-82
2022/11/13 07:00:25;;;;;;;37.05;12.85;;;6.70;99.90;;;;;;5006895;28;20637;-82
2022/11/13 07:02:51;;;;;;;22.42;12.23;;;6.80;99.90;;;;;;5002076;28;20059;-82
2022/11/13 07:05:17;;;;;;;43.78;12.90;;;6.80;99.90;;;;;;5008066;28;20037;-82
2022/11/13 07:07:42;;;;;;;28.45;13.00;;;6.90;99.90;;;;;;5003788;28;20041;-82
2022/11/13 07:10:08;;;;;;;56.03;12.80;;;6.90;99.90;;;;;;5004866;28;20041;-82
2022/11/13 07:12:34;;;;;;;31.17;14.27;;;6.90;99.90;;;;;;5004224;28;21561;-82
2022/11/13 07:14:59;;;;;;;33.00;12.82;;;7.00;99.90;;;;;;5006409;28;20604;-82
2022/11/13 07:17:27;;;;;;;24.23;13.43;;;7.10;99.90;;;;;;5008054;28;20750;-82
2022/11/13 07:19:52;;;;;;;58.38;13.65;;;7.10;99.90;;;;;;5004107;28;20041;-83
2022/11/13 07:22:18;;;;;;;31.85;13.30;;;7.20;99.90;;;;;;5007302;28;20112;-82
2022/11/13 07:24:43;;;;;;;30.55;13.15;;;7.20;99.90;;;;;;5005525;28;20045;-83
2022/11/13 07:27:09;;;;;;;29.92;13.85;;;7.20;99.90;;;;;;5007683;28;20057;-82
2022/11/13 07:29:35;;;;;;;19.05;12.13;;;7.30;99.90;;;;;;5005656;28;20038;-83
2022/11/13 07:32:01;;;;;;;57.67;13.13;;;7.30;99.90;;;;;;5003682;28;20132;-83
2022/11/13 07:34:26;;;;;;;78.22;12.30;;;7.30;99.90;;;;;;5004255;28;20430;-83
2022/11/13 07:36:52;;;;;;;36.30;12.43;;;7.30;99.90;;;;;;5007635;28;20044;-82
2022/11/13 07:39:17;;;;;;;45.35;12.45;;;7.30;99.90;;;;;;5005196;28;20498;-82
2022/11/13 07:41:43;;;;;;;36.45;13.85;;;7.20;99.90;;;;;;5009019;28;20064;-83
2022/11/13 07:44:09;;;;;;;38.20;13.80;;;7.30;99.90;;;;;;5005824;28;20036;-82
2022/11/13 07:46:34;;;;;;;22.52;12.98;;;7.30;99.90;;;;;;5006875;28;20037;-76
2022/11/13 07:49:00;;;;;;;26.45;11.85;;;7.40;99.90;;;;;;5004314;28;20084;-77
2022/11/13 07:51:25;;;;;;;25.95;11.13;;;7.40;99.90;;;;;;5003872;28;20100;-83
2022/11/13 07:53:51;;;;;;;45.80;12.05;;;7.50;99.90;;;;;;5004541;28;20040;-82
2022/11/13 07:56:16;;;;;;;29.90;12.57;;;7.50;99.90;;;;;;5011321;28;20048;-83
2022/11/13 07:58:42;;;;;;;29.00;11.90;;;7.50;99.90;;;;;;5007840;28;20041;-83
2022/11/13 08:01:08;;;;;;;34.75;11.48;;;7.60;99.90;;;;;;5004058;28;20844;-83
2022/11/13 08:03:34;;;;;;;27.00;12.75;;;7.60;99.90;;;;;;5004622;28;20033;-83
2022/11/13 08:06:04;;;;;;;25.83;12.55;;;7.60;99.90;;;;;;4998374;28;20042;-83
2022/11/13 08:08:30;;;;;;;19.30;13.20;;;7.70;99.90;;;;;;5008643;28;20033;-83
2022/11/13 08:10:56;;;;;;;23.70;12.45;;;7.70;99.90;;;;;;5003174;28;20104;-82
2022/11/13 08:13:22;;;;;;;43.53;11.98;;;7.80;99.90;;;;;;5006774;28;20112;-82
2022/11/13 08:15:48;;;;;;;29.70;11.75;;;7.80;99.90;;;;;;4999297;28;20041;-81
2022/11/13 08:18:13;;;;;;;29.20;12.35;;;7.80;99.90;;;;;;4998343;28;20069;-81
2022/11/13 08:20:39;;;;;;;30.23;12.15;;;7.80;99.90;;;;;;5004750;28;20029;-81
2022/11/13 08:23:05;;;;;;;26.95;11.85;;;7.90;99.90;;;;;;4998294;28;20041;-81
2022/11/13 08:25:32;;;;;;;27.13;12.63;;;7.90;99.90;;;;;;5005008;28;20044;-82
2022/11/13 08:27:57;;;;;;;30.98;12.15;;;8.00;99.90;;;;;;5005458;28;20205;-75
2022/11/13 08:30:25;;;;;;;40.20;11.30;;;8.00;99.90;;;;;;5010967;28;20046;-75
2022/11/13 08:32:51;;;;;;;23.38;12.43;;;8.00;99.90;;;;;;5004931;28;20061;-75
2022/11/13 08:35:18;;;;;;;41.00;13.05;;;8.00;99.90;;;;;;4998219;28;20107;-79
2022/11/13 08:37:43;;;;;;;21.02;13.23;;;8.00;99.90;;;;;;5004145;28;20074;-79
2022/11/13 08:40:10;;;;;;;46.88;12.07;;;8.10;99.90;;;;;;5008873;28;20397;-82
2022/11/13 08:42:35;;;;;;;66.13;12.27;;;8.10;99.90;;;;;;5002661;28;20058;-80
2022/11/13 08:45:01;;;;;;;35.30;11.32;;;8.10;99.90;;;;;;5005780;28;20083;-76
2022/11/13 08:47:28;;;;;;;14.90;11.90;;;8.10;99.90;;;;;;5004639;28;20103;-76
2022/11/13 08:49:54;;;;;;;49.75;12.85;;;8.10;99.90;;;;;;5009382;28;20441;-76
2022/11/13 08:52:20;;;;;;;53.58;11.68;;;8.10;99.90;;;;;;5006546;28;20133;-77
2022/11/13 08:54:45;;;;;;;65.07;11.68;;;8.00;99.90;;;;;;5003879;28;20040;-76
2022/11/13 08:57:11;;;;;;;96.25;12.68;;;7.90;99.90;;;;;;5009017;28;20045;-76
2022/11/13 08:59:36;;;;;;;79.90;12.80;;;7.90;99.90;;;;;;5016762;28;20033;-76
2022/11/13 09:02:02;;;;;;;77.70;12.52;;;7.90;99.90;;;;;;5007089;28;20405;-77
2022/11/13 09:04:28;;;;;;;29.35;13.40;;;8.00;99.90;;;;;;5015486;28;20469;-80
2022/11/13 09:06:54;;;;;;;73.28;14.77;;;8.00;99.90;;;;;;5008340;28;20045;-77
2022/11/13 09:09:20;;;;;;;21.35;13.30;;;8.00;99.90;;;;;;5012665;28;20025;-75
2022/11/13 09:11:46;;;;;;;47.22;12.90;;;8.10;99.90;;;;;;5010616;28;20621;-75
2022/11/13 09:14:12;;;;;;;35.38;13.32;;;8.10;99.90;;;;;;5014412;28;20056;-74
2022/11/13 09:16:38;;;;;;;50.38;14.20;;;8.20;99.90;;;;;;5009187;28;20044;-73
2022/11/13 09:19:04;;;;;;;72.20;13.88;;;8.20;99.90;;;;;;5010819;28;20646;-74
2022/11/13 09:21:29;;;;;;;120.63;79.68;;;8.20;99.90;;;;;;4993489;28;20767;-74
2022/11/13 09:23:55;;;;;;;29.27;20.98;;;8.30;99.90;;;;;;5008329;28;20041;-72
2022/11/13 09:26:21;;;;;;;51.13;15.15;;;8.30;99.90;;;;;;5009521;28;20041;-77
2022/11/13 09:28:46;;;;;;;97.07;15.18;;;8.40;99.90;;;;;;5012329;28;20068;-75
2022/11/13 09:31:12;;;;;;;21.63;13.82;;;8.40;99.90;;;;;;5010776;28;20044;-78
2022/11/13 09:33:38;;;;;;;22.70;13.40;;;8.50;99.90;;;;;;4990055;28;20049;-78
2022/11/13 09:36:11;;;;;;;29.77;12.98;;;8.60;99.90;;;;;;5008465;28;20060;-79
2022/11/13 09:38:37;;;;;;;22.58;12.85;;;8.70;99.90;;;;;;5002067;28;20037;-78
2022/11/13 09:41:05;;;;;;;35.65;13.65;;;8.70;99.90;;;;;;5011254;28;20103;-78
2022/11/13 09:43:41;;;;;;;50.47;13.43;;;8.70;99.90;;;;;;5013371;28;20103;-77
2022/11/13 09:46:14;;;;;;;54.40;13.15;;;8.80;99.90;;;;;;5020498;28;20034;-76
2022/11/13 09:48:45;;;;;;;27.10;12.82;;;8.70;99.90;;;;;;5012062;28;20044;-75
2022/11/13 09:51:17;;;;;;;14.98;12.57;;;8.70;99.90;;;;;;5016258;28;20433;-76
2022/11/13 09:53:42;;;;;;;36.42;13.10;;;8.70;99.90;;;;;;5000083;28;20052;-76
2022/11/13 09:56:54;;;;;;;34.10;12.85;;;8.80;99.90;;;;;;5015499;28;21266;-76
2022/11/13 09:59:29;;;;;;;46.13;12.52;;;8.90;99.90;;;;;;5012641;28;20076;-76
2022/11/13 10:02:06;;;;;;;55.05;14.98;;;8.90;99.90;;;;;;5015583;28;20048;-76
2022/11/13 10:04:56;;;;;;;28.73;12.55;;;8.90;99.90;;;;;;5019041;28;20505;-76
2022/11/13 10:07:48;;;;;;;41.92;12.55;;;8.90;99.90;;;;;;5003242;28;20517;-77
2022/11/13 10:10:39;;;;;;;26.33;12.13;;;9.00;99.90;;;;;;5009718;28;20050;-78
2022/11/13 10:13:08;;;;;;;53.25;11.95;;;9.00;99.90;;;;;;5004141;28;20050;-79
2022/11/13 10:15:35;;;;;;;34.40;13.15;;;9.00;99.90;;;;;;5007566;28;20576;-79
2022/11/13 10:18:20;;;;;;;46.35;13.57;;;8.90;99.90;;;;;;5018482;28;20037;-81
2022/11/13 10:20:56;;;;;;;18.92;12.88;;;8.90;99.90;;;;;;5016952;28;20033;-79
2022/11/13 10:23:36;;;;;;;13.57;12.18;;;9.00;99.90;;;;;;5016620;28;20092;-78
2022/11/13 10:26:17;;;;;;;32.30;12.73;;;9.10;99.90;;;;;;5019439;28;20911;-78
2022/11/13 10:28:43;;;;;;;14.32;11.77;;;9.20;99.90;;;;;;5018175;28;20124;-77
2022/11/13 10:31:13;;;;;;;32.53;23.85;;;9.20;99.90;;;;;;5017256;28;20124;-77
2022/11/13 10:33:38;;;;;;;20.00;12.50;;;9.20;99.90;;;;;;5013168;28;20669;-77
2022/11/13 10:36:38;;;;;;;30.75;13.55;;;9.30;99.90;;;;;;5021656;28;20061;-77
2022/11/13 10:39:06;;;;;;;50.50;26.48;;;9.30;99.90;;;;;;4994875;28;20116;-77
2022/11/13 10:41:32;;;;;;;57.80;31.40;;;9.30;99.90;;;;;;5020980;28;20445;-77
2022/11/13 10:44:28;;;;;;;29.98;15.88;;;9.30;99.90;;;;;;5020997;28;20045;-78
2022/11/13 10:47:16;;;;;;;20.35;13.90;;;9.30;99.90;;;;;;5019403;28;20040;-78
2022/11/13 10:49:42;;;;;;;16.33;12.68;;;9.30;99.90;;;;;;5023573;28;20025;-79
2022/11/13 10:52:22;;;;;;;27.67;14.07;;;9.40;99.90;;;;;;5016599;28;20037;-80
2022/11/13 10:54:48;;;;;;;64.03;13.40;;;9.40;99.90;;;;;;5016965;28;20391;-78
2022/11/13 10:57:29;;;;;;;40.20;22.00;;;9.50;99.90;;;;;;5000866;28;20116;-79
2022/11/13 10:59:55;;;;;;;49.35;13.25;;;9.50;99.90;;;;;;5023155;28;20033;-79
2022/11/13 11:02:24;;;;;;;67.30;12.35;;;9.50;99.90;;;;;;5017811;28;20053;-78
2022/11/13 11:05:04;;;;;;;21.98;14.05;;;9.40;99.90;;;;;;5021507;28;20816;-79
2022/11/13 11:07:38;;;;;;;26.92;14.45;;;9.20;99.90;;;;;;5017091;28;20535;-79
2022/11/13 11:10:26;;;;;;;31.95;13.75;;;9.20;99.90;;;;;;5019831;28;20029;-79
2022/11/13 11:12:59;;;;;;;38.28;21.58;;;9.30;99.90;;;;;;5021196;28;20405;-79
2022/11/13 11:15:41;;;;;;;25.63;14.52;;;9.30;99.90;;;;;;5018599;28;20650;-80
2022/11/13 11:18:13;;;;;;;34.45;20.98;;;9.30;99.90;;;;;;5016384;28;20041;-80
2022/11/13 11:20:56;;;;;;;25.02;14.98;;;9.40;99.90;;;;;;5016976;28;20092;-80
2022/11/13 11:23:22;;;;;;;57.92;15.45;;;9.50;99.90;;;;;;5014921;28;20084;-80
2022/11/13 11:26:02;;;;;;;41.97;16.15;;;9.60;99.90;;;;;;4995235;28;20037;-80
2022/11/13 11:28:46;;;;;;;27.88;15.75;;;9.50;99.90;;;;;;5013296;28;20057;-80
2022/11/13 11:31:40;;;;;;;20.92;13.77;;;9.60;99.90;;;;;;5019738;28;20498;-81
2022/11/13 11:34:43;;;;;;;24.80;15.48;;;9.60;99.90;;;;;;5020831;28;20107;-81
2022/11/13 11:37:17;;;;;;;59.33;17.50;;;9.60;99.90;;;;;;5018820;28;20049;-79
2022/11/13 11:39:48;;;;;;;122.15;25.02;;;9.70;99.90;;;;;;5013890;28;20490;-80
2022/11/13 11:42:35;;;;;;;37.33;16.50;;;9.70;99.90;;;;;;5017845;28;20467;-80
2022/11/13 11:45:22;;;;;;;34.55;15.25;;;9.70;99.90;;;;;;5018761;28;20042;-80
2022/11/13 11:47:48;;;;;;;136.82;25.83;;;9.70;99.90;;;;;;5018082;28;20091;-79
2022/11/13 11:50:20;;;;;;;37.45;17.55;;;9.70;99.90;;;;;;5015065;28;20041;-80
2022/11/13 11:53:15;;;;;;;32.83;19.33;;;9.70;99.90;;;;;;5015316;28;20116;-80
2022/11/13 11:56:01;;;;;;;48.25;22.58;;;9.70;99.90;;;;;;5014622;28;20120;-78
2022/11/13 11:58:36;;;;;;;31.50;19.55;;;9.80;99.90;;;;;;5017534;28;20528;-77
2022/11/13 12:01:15;;;;;;;41.80;18.90;;;9.90;99.90;;;;;;5004031;28;20525;-78
2022/11/13 12:04:06;;;;;;;53.78;22.17;;;9.90;99.90;;;;;;5011915;28;20125;-76
2022/11/13 12:07:07;;;;;;;54.55;19.55;;;10.00;99.90;;;;;;5008924;28;20132;-76
2022/11/13 12:09:38;;;;;;;50.05;16.50;;;9.90;99.90;;;;;;5013293;28;20041;-76
2022/11/13 12:12:32;;;;;;;27.67;17.73;;;9.90;99.90;;;;;;5014709;28;20049;-77
2022/11/13 12:15:01;;;;;;;27.75;15.00;;;9.90;99.90;;;;;;5010786;28;21272;-77
2022/11/13 12:17:53;;;;;;;27.77;15.50;;;9.90;99.90;;;;;;5015840;28;20089;-76
2022/11/13 12:20:53;;;;;;;26.42;15.15;;;10.00;99.90;;;;;;5007162;28;20037;-77
2022/11/13 12:23:34;;;;;;;35.65;16.35;;;9.90;99.90;;;;;;4976547;28;20049;-75
2022/11/13 12:26:01;;;;;;;36.45;17.65;;;9.90;99.90;;;;;;5011320;28;20037;-74
2022/11/13 12:28:39;;;;;;;27.55;17.48;;;10.00;99.90;;;;;;5011224;28;20053;-74
2022/11/13 12:31:13;;;;;;;33.47;17.02;;;10.10;99.90;;;;;;5006734;28;20044;-74
2022/11/13 12:34:00;;;;;;;31.65;18.27;;;10.10;99.90;;;;;;5004658;28;20128;-74
2022/11/13 12:36:26;;;;;;;37.38;23.00;;;10.10;99.90;;;;;;5004636;28;20313;-74
2022/11/13 12:39:34;;;;;;;36.30;19.73;;;10.20;99.90;;;;;;4994740;28;20177;-74
2022/11/13 12:42:33;;;;;;;28.83;20.35;;;10.20;99.90;;;;;;5002350;28;20041;-74
2022/11/13 12:45:29;;;;;;;33.08;20.70;;;10.20;99.90;;;;;;4982926;28;20046;-74
2022/11/13 12:47:55;;;;;;;31.30;21.35;;;10.20;99.90;;;;;;5007169;28;20045;-73
2022/11/13 12:50:27;;;;;;;24.38;17.33;;;10.20;99.90;;;;;;5001570;28;20489;-74